Forside
METAR-TAF:

METAR-TAF

Lufthavne :

Fort Madison Municipal Airport

Fort Madison, Iowa, USA

Breddekreds: 40-40N, længdekreds: 091-20W, højde: 221 m

Aktuelle vejr

Denne rapport blev lavet for 19 minutter siden, kl. 23:15 UTC
Vind stille
Temperatur 0°C
Fugtighed 59%
Tryk 1030 hPa
Sigt: 16.1 km
skyfri

METAR: KFSW 142315Z AUTO 00000KT 10SM CLR 00/M07 A3041 RMK AO2

Tid: 17:34 (23:34 UTC)


TAF: fraværende

Vejrobservationer og prognoser fra mere end 4000 lufthavne (METAR og TAF).

De gule og røde prikker repræsenterer de meteorologiske stationer.

Flyt musen over at se navnet på stationen.

Så klik over at se vejr observationer og prognoser.

At skifte det kort: Klik på de grønne knapper med et sort kors for at zoome ind; på den grønne knap med en bindestreg for at zoome ud; eller på de grønne pile for tilstødende kort.


METAR-TAF: